Time;durP1;ratioP1;P1;durP2;ratioP2;P2;SDS_P1;SDS_P2;PMS_P1;PMS_P2;Temp;Humidity;BMP_temperature;BMP_pressure;BME280_temperature;BME280_humidity;BME280_pressure;Samples;Min_cycle;Max_cycle;Signal;HPM_P1;HPM_P2
2023/07/20 00:01:38;;;;;;;;;;;;;;;-140.72;100.00;52595.81;5087564;28;19967;-71
2023/07/20 00:04:03;;;;;;;;;;;;;;;-140.72;100.00;52581.59;5091029;28;19928;-71
2023/07/20 00:06:28;;;;;;;;;;;;;;;-140.72;100.00;52587.69;5097468;28;19986;-71
2023/07/20 00:08:54;;;;;;;;;;;;;;;-140.72;100.00;52589.72;5090444;28;19921;-72
2023/07/20 00:11:20;;;;;;;;;;;;;;;-140.72;100.00;52605.94;5091134;28;19928;-71
2023/07/20 00:13:45;;;;;;;;;;;;;;;-140.72;100.00;52569.44;5074099;28;20019;-72
2023/07/20 00:16:10;;;;;;;;;;;;;;;-140.72;100.00;52630.31;5085296;28;19916;-72
2023/07/20 00:18:36;;;;;;;;;;;;;;;-140.72;100.00;52597.84;5092925;28;20054;-72
2023/07/20 00:21:01;;;;;;;;;;;;;;;-140.72;100.00;52595.81;5091884;28;20038;-71
2023/07/20 00:23:26;;;;;;;;;;;;;;;-140.72;100.00;52583.63;5094902;28;19927;-72
2023/07/20 00:25:52;;;;;;;;;;;;;;;-140.72;100.00;52607.97;5087965;28;20429;-72
2023/07/20 00:28:17;;;;;;;;;;;;;;;-140.72;100.00;52595.81;5089023;28;19927;-71
2023/07/20 00:30:42;;;;;;;;;;;;;;;-140.72;100.00;52646.53;5089549;28;20376;-71
2023/07/20 00:33:10;;;;;;;;;;;;;;;-140.72;100.00;52610.00;5076283;28;19981;-73
2023/07/20 00:35:38;;;;;;;;;;;;;;;-140.72;100.00;52628.28;5086230;28;19920;-72
2023/07/20 00:38:04;;;;;;;;;;;;;;;-140.72;100.00;52593.78;5089267;28;19916;-71
2023/07/20 00:40:35;;;;;;;;;;;;;;;-140.72;100.00;52632.34;5081956;28;20358;-72
2023/07/20 00:43:00;;;;;;;;;;;;;;;-140.72;100.00;52632.34;5060644;28;19916;-71
2023/07/20 00:45:26;;;;;;;;;;;;;;;-140.72;100.00;52616.09;5093177;28;20403;-71
2023/07/20 00:47:51;;;;;;;;;;;;;;;-140.72;100.00;52597.84;5058625;28;20269;-71
2023/07/20 00:50:16;;;;;;;;;;;;;;;-140.72;100.00;52610.00;5082090;28;20338;-71
2023/07/20 00:52:41;;;;;;;;;;;;;;;-140.72;100.00;52634.38;5086935;28;19920;-71
2023/07/20 00:55:07;;;;;;;;;;;;;;;-140.72;100.00;52664.81;5091427;28;19920;-71
2023/07/20 00:57:32;;;;;;;;;;;;;;;-140.72;100.00;52618.13;5085780;28;19928;-72
2023/07/20 00:59:58;;;;;;;;;;;;;;;-140.72;100.00;52634.38;5084249;28;19959;-71
2023/07/20 01:02:23;;;;;;;;;;;;;;;-140.72;100.00;52622.19;5090796;28;19946;-71
2023/07/20 01:04:49;;;;;;;;;;;;;;;-140.72;100.00;52618.13;5091030;28;19981;-71
2023/07/20 01:07:22;;;;;;;;;;;;;;;-140.72;100.00;52640.44;5085851;28;20253;-71
2023/07/20 01:09:54;;;;;;;;;;;;;;;-140.72;100.00;52634.38;5086602;28;19923;-71
2023/07/20 01:12:19;;;;;;;;;;;;;;;-140.72;100.00;52618.13;5085883;28;20408;-72
2023/07/20 01:14:45;;;;;;;;;;;;;;;-140.72;100.00;52636.38;5083791;28;19937;-71
2023/07/20 01:17:10;;;;;;;;;;;;;;;-140.72;100.00;52636.38;5075760;28;20298;-71
2023/07/20 01:19:35;;;;;;;;;;;;;;;-140.72;100.00;52628.28;5090017;28;19958;-71
2023/07/20 01:24:59;;;;;;;;;;;;;;;-140.72;100.00;52626.25;5086348;28;19939;-72
2023/07/20 01:27:48;;;;;;;;;;;;;;;-140.72;100.00;52634.38;5100796;28;19999;-71
2023/07/20 01:30:31;;;;;;;;;;;;;;;-140.72;100.00;52672.91;5092709;28;19921;-71
2023/07/20 01:33:15;;;;;;;;;;;;;;;-140.72;100.00;52644.50;5082432;28;20281;-71
2023/07/20 01:35:41;;;;;;;;;;;;;;;-140.72;100.00;52618.13;5088584;28;20030;-71
2023/07/20 01:38:07;;;;;;;;;;;;;;;-140.72;100.00;52674.94;5084273;28;19963;-71
2023/07/20 01:40:32;;;;;;;;;;;;;;;-140.72;100.00;52642.47;5087205;28;20358;-71
2023/07/20 01:43:16;;;;;;;;;;;;;;;-140.72;100.00;52618.13;5091287;28;19916;-71
2023/07/20 01:45:41;;;;;;;;;;;;;;;-140.72;100.00;52652.63;5085016;28;19925;-71
2023/07/20 01:48:07;;;;;;;;;;;;;;;-140.72;100.00;52670.88;5085395;28;19943;-71
2023/07/20 01:50:34;;;;;;;;;;;;;;;-140.72;100.00;52672.91;5087622;28;19938;-71
2023/07/20 01:52:59;;;;;;;;;;;;;;;-140.72;100.00;52652.63;5086464;28;19932;-71
2023/07/20 01:55:24;;;;;;;;;;;;;;;-140.72;100.00;52683.06;5090023;28;19992;-71
2023/07/20 01:57:49;;;;;;;;;;;;;;;-140.72;100.00;52638.41;5084507;28;19928;-71
2023/07/20 02:00:15;;;;;;;;;;;;;;;-140.72;100.00;52650.59;5083974;28;20318;-71
2023/07/20 02:02:47;;;;;;;;;;;;;;;-140.72;100.00;52679.00;5086836;28;19924;-71
2023/07/20 02:05:12;;;;;;;;;;;;;;;-140.72;100.00;52618.13;5091058;28;20353;-70
2023/07/20 02:07:39;;;;;;;;;;;;;;;-140.72;100.00;52634.38;5084564;28;19920;-71
2023/07/20 02:10:12;;;;;;;;;;;;;;;-140.72;100.00;52658.72;5087712;28;19958;-71
2023/07/20 02:12:38;;;;;;;;;;;;;;;-140.72;100.00;52664.81;5094771;28;20006;-71
2023/07/20 02:15:10;;;;;;;;;;;;;;;-140.72;100.00;52628.28;5092061;28;20045;-71
2023/07/20 02:17:36;;;;;;;;;;;;;;;-140.72;100.00;52650.59;5087460;28;20373;-71
2023/07/20 02:20:01;;;;;;;;;;;;;;;-140.72;100.00;52681.03;5091291;28;19963;-71
2023/07/20 02:22:26;;;;;;;;;;;;;;;-140.72;100.00;52648.56;5088856;28;20001;-71
2023/07/20 02:24:52;;;;;;;;;;;;;;;-140.72;100.00;52644.50;5069074;28;19920;-72
2023/07/20 02:27:17;;;;;;;;;;;;;;;-140.72;100.00;52648.56;5093116;28;19920;-72
2023/07/20 02:29:42;;;;;;;;;;;;;;;-140.72;100.00;52638.41;5094923;28;19921;-72
2023/07/20 02:32:09;;;;;;;;;;;;;;;-140.72;100.00;52701.31;5089048;28;19927;-72
2023/07/20 02:34:35;;;;;;;;;;;;;;;-140.72;100.00;52628.28;5083092;28;20003;-71
2023/07/20 02:37:00;;;;;;;;;;;;;;;-140.72;100.00;52648.56;5083362;28;19928;-72
2023/07/20 02:39:29;;;;;;;;;;;;;;;-140.72;100.00;52687.13;5088992;28;19993;-71
2023/07/20 02:41:54;;;;;;;;;;;;;;;-140.72;100.00;52599.88;5086701;28;20029;-72
2023/07/20 02:44:23;;;;;;;;;;;;;;;-140.72;100.00;52646.53;5093562;28;19920;-71
2023/07/20 02:46:49;;;;;;;;;;;;;;;-140.72;100.00;52654.66;5094271;28;19927;-72
2023/07/20 02:49:15;;;;;;;;;;;;;;;-140.72;100.00;52674.94;5088463;28;19942;-72
2023/07/20 02:51:40;;;;;;;;;;;;;;;-140.72;100.00;52646.53;5093794;28;20003;-72
2023/07/20 02:54:05;;;;;;;;;;;;;;;-140.72;100.00;52695.25;5090464;28;19927;-71
2023/07/20 02:56:33;;;;;;;;;;;;;;;-140.72;100.00;52668.84;5090018;28;20416;-71
2023/07/20 02:58:58;;;;;;;;;;;;;;;-140.72;100.00;52638.41;5092516;28;19971;-71
2023/07/20 03:01:24;;;;;;;;;;;;;;;-140.72;100.00;52691.19;5092926;28;19959;-72
2023/07/20 03:03:59;;;;;;;;;;;;;;;-140.72;100.00;52644.50;5094859;28;19923;-71
2023/07/20 03:06:25;;;;;;;;;;;;;;;-140.72;100.00;52658.72;5095884;28;20006;-71
2023/07/20 03:08:51;;;;;;;;;;;;;;;-140.72;100.00;52670.88;5075334;28;20016;-71
2023/07/20 03:11:17;;;;;;;;;;;;;;;-140.72;100.00;52689.16;5078125;28;19941;-71
2023/07/20 03:13:43;;;;;;;;;;;;;;;-140.72;100.00;52683.06;5083357;28;19987;-71
2023/07/20 03:16:11;;;;;;;;;;;;;;;-140.72;100.00;52709.44;5092261;28;19929;-71
2023/07/20 03:18:37;;;;;;;;;;;;;;;-140.72;100.00;52632.34;5091909;28;20028;-71
2023/07/20 03:21:02;;;;;;;;;;;;;;;-140.72;100.00;52660.75;5090680;28;19959;-71
2023/07/20 03:23:27;;;;;;;;;;;;;;;-140.72;100.00;52737.84;5095286;28;19983;-71
2023/07/20 03:25:54;;;;;;;;;;;;;;;-140.72;100.00;52672.91;5096380;28;19927;-71
2023/07/20 03:28:20;;;;;;;;;;;;;;;-140.72;100.00;52693.22;5094003;28;20389;-71
2023/07/20 03:30:45;;;;;;;;;;;;;;;-140.72;100.00;52683.06;5090799;28;19928;-71
2023/07/20 03:33:10;;;;;;;;;;;;;;;-140.72;100.00;52674.94;5089788;28;20374;-71
2023/07/20 03:35:36;;;;;;;;;;;;;;;-140.72;100.00;52687.13;5089386;28;20384;-71
2023/07/20 03:38:01;;;;;;;;;;;;;;;-140.72;100.00;52668.84;5090742;28;19979;-71
2023/07/20 03:40:26;;;;;;;;;;;;;;;-140.72;100.00;52664.81;5090708;28;19951;-72
2023/07/20 03:42:51;;;;;;;;;;;;;;;-140.72;100.00;52658.72;5091483;28;19920;-74
2023/07/20 03:45:17;;;;;;;;;;;;;;;-140.72;100.00;52683.06;5083773;28;19923;-71
2023/07/20 03:47:44;;;;;;;;;;;;;;;-140.72;100.00;52660.75;5104239;27;19973;-71
2023/07/20 03:50:10;;;;;;;;;;;;;;;-140.72;100.00;52687.13;5095528;28;19928;-71
2023/07/20 03:52:35;;;;;;;;;;;;;;;-140.72;100.00;52689.16;5091370;28;20019;-71
2023/07/20 03:55:00;;;;;;;;;;;;;;;-140.72;100.00;52652.63;5093139;28;20432;-71
2023/07/20 03:57:26;;;;;;;;;;;;;;;-140.72;100.00;52715.53;5092368;28;19927;-71
2023/07/20 03:59:51;;;;;;;;;;;;;;;-140.72;100.00;52664.81;5091201;28;19969;-70
2023/07/20 04:02:16;;;;;;;;;;;;;;;-140.72;100.00;52646.53;5093585;28;19923;-71
2023/07/20 04:04:41;;;;;;;;;;;;;;;-140.72;100.00;52695.25;5087312;28;19942;-74
2023/07/20 04:07:07;;;;;;;;;;;;;;;-140.72;100.00;52687.13;5089701;28;19921;-74
2023/07/20 04:09:48;;;;;;;;;;;;;;;-140.72;100.00;52640.44;5094364;28;20364;-75
2023/07/20 04:12:25;;;;;;;;;;;;;;;-140.72;100.00;52666.84;5087391;28;20305;-72
2023/07/20 04:14:50;;;;;;;;;;;;;;;-140.72;100.00;52715.53;5097187;28;19927;-72
2023/07/20 04:17:17;;;;;;;;;;;;;;;-140.72;100.00;52719.59;5088404;28;20300;-71
2023/07/20 04:19:55;;;;;;;;;;;;;;;-140.72;100.00;52687.13;5085739;28;19920;-71
2023/07/20 04:22:21;;;;;;;;;;;;;;;-140.72;100.00;52695.25;5078054;28;19926;-72
2023/07/20 04:24:50;;;;;;;;;;;;;;;-140.72;100.00;52666.84;5090442;28;19921;-72
2023/07/20 04:27:16;;;;;;;;;;;;;;;-140.72;100.00;52691.19;5089653;28;19925;-72
2023/07/20 04:29:41;;;;;;;;;;;;;;;-140.72;100.00;52679.00;5089940;28;19974;-72
2023/07/20 04:32:07;;;;;;;;;;;;;;;-140.72;100.00;52638.41;5069853;28;19947;-73
2023/07/20 04:34:32;;;;;;;;;;;;;;;-140.72;100.00;52656.69;5100926;28;19920;-74
2023/07/20 04:36:57;;;;;;;;;;;;;;;-140.72;100.00;52652.63;5075902;28;19997;-71
2023/07/20 04:39:22;;;;;;;;;;;;;;;-140.72;100.00;52640.44;5075310;28;19977;-73
2023/07/20 04:41:48;;;;;;;;;;;;;;;-140.72;100.00;52668.84;5084664;28;19923;-72
2023/07/20 04:44:13;;;;;;;;;;;;;;;-140.72;100.00;52664.81;5087932;28;19920;-75
2023/07/20 04:46:39;;;;;;;;;;;;;;;-140.72;100.00;52658.72;5089433;28;20343;-74
2023/07/20 04:49:05;;;;;;;;;;;;;;;-140.72;100.00;52622.19;5088186;28;19927;-72
2023/07/20 04:51:30;;;;;;;;;;;;;;;-140.72;100.00;52674.94;5090317;28;20302;-73
2023/07/20 04:53:56;;;;;;;;;;;;;;;-140.72;100.00;52658.72;5089826;28;19969;-74
2023/07/20 04:56:23;;;;;;;;;;;;;;;-140.72;100.00;52650.59;5100955;28;19916;-73
2023/07/20 04:58:48;;;;;;;;;;;;;;;-140.72;100.00;52648.56;5088465;28;20362;-72
2023/07/20 05:01:13;;;;;;;;;;;;;;;-140.72;100.00;52648.56;5096098;28;19959;-72
2023/07/20 05:03:38;;;;;;;;;;;;;;;-140.72;100.00;52689.16;5089986;28;19925;-72
2023/07/20 05:06:04;;;;;;;;;;;;;;;-140.72;100.00;52626.25;5095364;28;19920;-70
2023/07/20 05:08:29;;;;;;;;;;;;;;;-140.72;100.00;52630.31;5095149;28;19924;-69
2023/07/20 05:10:54;;;;;;;;;;;;;;;-140.72;100.00;52636.38;5087171;28;19920;-70
2023/07/20 05:13:19;;;;;;;;;;;;;;;-140.72;100.00;52614.06;5084057;28;19923;-70
2023/07/20 05:15:45;;;;;;;;;;;;;;;-140.72;100.00;52603.94;5092650;28;19920;-70
2023/07/20 05:18:10;;;;;;;;;;;;;;;-140.72;100.00;52626.25;5088572;28;19921;-70
2023/07/20 05:20:37;;;;;;;;;;;;;;;-140.72;100.00;52630.31;5087384;28;19928;-70
2023/07/20 05:23:02;;;;;;;;;;;;;;;-140.72;100.00;52597.84;5084507;28;19927;-70
2023/07/20 05:25:27;;;;;;;;;;;;;;;-140.72;100.00;52605.94;5068968;28;19924;-70
2023/07/20 05:27:52;;;;;;;;;;;;;;;-140.72;100.00;52646.53;5085206;28;20379;-70
2023/07/20 05:30:18;;;;;;;;;;;;;;;-140.72;100.00;52597.84;5086482;28;19927;-70
2023/07/20 05:32:47;;;;;;;;;;;;;;;-140.72;100.00;52603.94;5083988;28;19927;-75
2023/07/20 05:35:12;;;;;;;;;;;;;;;-140.72;100.00;52618.13;5077046;28;19920;-75
2023/07/20 05:37:38;;;;;;;;;;;;;;;-140.72;100.00;52632.34;5090189;28;19927;-75
2023/07/20 05:40:04;;;;;;;;;;;;;;;-140.72;100.00;52638.41;5092283;28;20283;-75
2023/07/20 05:42:29;;;;;;;;;;;;;;;-140.72;100.00;52605.94;5085518;28;19990;-75
2023/07/20 05:44:55;;;;;;;;;;;;;;;-140.72;100.00;52648.56;5082372;28;20380;-72
2023/07/20 05:47:20;;;;;;;;;;;;;;;-140.72;100.00;52658.72;5096060;28;19920;-71
2023/07/20 05:49:45;;;;;;;;;;;;;;;-140.72;100.00;52601.91;5086727;28;19920;-72
2023/07/20 05:52:11;;;;;;;;;;;;;;;-140.72;100.00;52640.44;5065309;28;19921;-72
2023/07/20 05:54:36;;;;;;;;;;;;;;;-140.72;100.00;52634.38;5086170;28;19920;-72
2023/07/20 05:57:01;;;;;;;;;;;;;;;-140.72;100.00;52618.13;5087265;28;20306;-72
2023/07/20 05:59:29;;;;;;;;;;;;;;;-140.72;100.00;52618.13;5090834;28;19920;-72
2023/07/20 06:01:54;;;;;;;;;;;;;;;-140.72;100.00;52607.97;5072432;28;20327;-73
2023/07/20 06:04:19;;;;;;;;;;;;;;;-140.72;100.00;52571.47;5088021;28;19920;-81
2023/07/20 06:06:46;;;;;;;;;;;;;;;-140.72;100.00;52603.94;5068177;28;19920;-72
2023/07/20 06:09:11;;;;;;;;;;;;;;;-140.72;100.00;52561.31;5082534;28;19927;-71
2023/07/20 06:11:38;;;;;;;;;;;;;;;-140.72;100.00;52610.00;5091666;28;20371;-71
2023/07/20 06:14:03;;;;;;;;;;;;;;;-140.72;100.00;52585.66;5092865;28;19916;-71
2023/07/20 06:16:28;;;;;;;;;;;;;;;-140.72;100.00;52605.94;5093109;28;19939;-70
2023/07/20 06:18:53;;;;;;;;;;;;;;;-140.72;100.00;52565.38;5084239;28;19916;-71
2023/07/20 06:21:19;;;;;;;;;;;;;;;-140.72;100.00;52589.72;5088630;28;20007;-71
2023/07/20 06:23:45;;;;;;;;;;;;;;;-140.72;100.00;52614.06;5085682;28;19970;-71
2023/07/20 06:26:10;;;;;;;;;;;;;;;-140.72;100.00;52601.91;5091767;28;19922;-70
2023/07/20 06:28:36;;;;;;;;;;;;;;;-140.72;100.00;52581.59;5081297;28;19926;-71
2023/07/20 06:31:02;;;;;;;;;;;;;;;-140.72;100.00;52545.06;5091846;28;19923;-71
2023/07/20 06:33:27;;;;;;;;;;;;;;;-140.72;100.00;52581.59;5074971;28;19916;-71
2023/07/20 06:35:52;;;;;;;;;;;;;;;-140.72;100.00;52563.34;5090343;28;19927;-71
2023/07/20 06:38:18;;;;;;;;;;;;;;;-140.72;100.00;52553.19;5092696;28;20029;-71
2023/07/20 06:40:43;;;;;;;;;;;;;;;-140.72;100.00;52539.00;5090312;28;19920;-71
2023/07/20 06:43:09;;;;;;;;;;;;;;;-140.72;100.00;52563.34;5084052;28;19940;-71
2023/07/20 06:45:34;;;;;;;;;;;;;;;-140.72;100.00;52567.41;5084452;28;19929;-71
2023/07/20 06:47:59;;;;;;;;;;;;;;;-140.72;100.00;52553.19;5078730;28;19923;-72
2023/07/20 06:50:24;;;;;;;;;;;;;;;-140.72;100.00;52563.34;5081918;28;19927;-71
2023/07/20 06:52:50;;;;;;;;;;;;;;;-140.72;100.00;52571.47;5088712;28;20011;-72
2023/07/20 06:55:15;;;;;;;;;;;;;;;-140.72;100.00;52595.81;5082096;28;19940;-72
2023/07/20 06:57:40;;;;;;;;;;;;;;;-140.72;100.00;52593.78;5074897;28;20011;-72
2023/07/20 07:00:06;;;;;;;;;;;;;;;-140.72;100.00;52551.16;5084057;28;20362;-72
2023/07/20 07:02:32;;;;;;;;;;;;;;;-140.72;100.00;52549.13;5079743;28;19925;-73
2023/07/20 07:04:57;;;;;;;;;;;;;;;-140.72;100.00;52557.25;5083087;28;19916;-72
2023/07/20 07:07:23;;;;;;;;;;;;;;;-140.72;100.00;52557.25;5084857;28;19916;-72
2023/07/20 07:09:48;;;;;;;;;;;;;;;-140.72;100.00;52577.53;5075317;28;19967;-72
2023/07/20 07:12:14;;;;;;;;;;;;;;;-140.72;100.00;52534.94;5070001;28;19920;-72
2023/07/20 07:14:39;;;;;;;;;;;;;;;-140.72;100.00;52571.47;5090290;28;20004;-72
2023/07/20 07:17:04;;;;;;;;;;;;;;;-140.72;100.00;52555.22;5089314;28;20281;-72
2023/07/20 07:19:30;;;;;;;;;;;;;;;-140.72;100.00;52565.38;5081774;28;19960;-72
2023/07/20 07:21:55;;;;;;;;;;;;;;;-140.72;100.00;52551.16;5082457;28;19917;-72
2023/07/20 07:24:20;;;;;;;;;;;;;;;-140.72;100.00;52543.03;5083411;28;19924;-71
2023/07/20 07:26:45;;;;;;;;;;;;;;;-140.72;100.00;52512.59;5064657;28;19927;-72
2023/07/20 07:29:10;;;;;;;;;;;;;;;-140.72;100.00;52545.06;5087265;28;19923;-73
2023/07/20 07:31:36;;;;;;;;;;;;;;;-140.72;100.00;52508.56;5097690;28;20007;-72
2023/07/20 07:34:02;;;;;;;;;;;;;;;-140.72;100.00;52526.81;5090497;28;19916;-72
2023/07/20 07:36:27;;;;;;;;;;;;;;;-140.72;100.00;52516.66;5077606;28;20293;-72
2023/07/20 07:38:52;;;;;;;;;;;;;;;-140.72;100.00;52500.44;5084966;28;19916;-72
2023/07/20 07:41:18;;;;;;;;;;;;;;;-140.72;100.00;52488.25;5075168;28;20003;-72
2023/07/20 07:43:43;;;;;;;;;;;;;;;-140.72;100.00;52528.84;5084669;28;20337;-72
2023/07/20 07:46:08;;;;;;;;;;;;;;;-140.72;100.00;52528.84;5081527;28;19935;-72
2023/07/20 07:48:33;;;;;;;;;;;;;;;-140.72;100.00;52524.78;5095591;28;19916;-72
2023/07/20 07:50:59;;;;;;;;;;;;;;;-140.72;100.00;52512.59;5094488;28;19922;-72
2023/07/20 07:53:25;;;;;;;;;;;;;;;-140.72;100.00;52534.94;5086685;28;19917;-72
2023/07/20 07:55:51;;;;;;;;;;;;;;;-140.72;100.00;52532.91;5088122;28;20338;-72
2023/07/20 07:58:16;;;;;;;;;;;;;;;-140.72;100.00;52516.66;5086059;28;19924;-72
2023/07/20 08:00:43;;;;;;;;;;;;;;;-140.72;100.00;52557.25;5102237;28;19924;-72
2023/07/20 08:03:08;;;;;;;;;;;;;;;-140.72;100.00;52526.81;5074691;28;19999;-72
2023/07/20 08:05:34;;;;;;;;;;;;;;;-140.72;100.00;52474.06;5084627;28;19962;-75
2023/07/20 08:08:00;;;;;;;;;;;;;;;-140.72;100.00;52496.38;5093249;28;19964;-72
2023/07/20 08:10:25;;;;;;;;;;;;;;;-140.72;100.00;52506.53;5071063;28;19927;-73
2023/07/20 08:12:51;;;;;;;;;;;;;;;-140.72;100.00;52486.22;5079133;28;19916;-72
2023/07/20 08:15:16;;;;;;;;;;;;;;;-140.72;100.00;52476.09;5093024;28;20328;-72
2023/07/20 08:17:44;;;;;;;;;;;;;;;-140.72;100.00;52419.28;5081712;28;19938;-72
2023/07/20 08:20:12;;;;;;;;;;;;;;;-140.72;100.00;52482.16;5085192;28;19925;-72
2023/07/20 08:22:37;;;;;;;;;;;;;;;-140.72;100.00;52378.69;5085795;28;20268;-73
2023/07/20 08:25:02;;;;;;;;;;;;;;;-140.72;100.00;52445.66;5078783;28;19916;-73
2023/07/20 08:27:28;;;;;;;;;;;;;;;-140.72;100.00;52411.16;5067626;28;20050;-72
2023/07/20 08:29:53;;;;;;;;;;;;;;;-140.72;49.48;52407.09;5098739;28;19916;-72
2023/07/20 08:32:19;;;;;;;;;;;;;;;-140.72;0.00;52384.78;5098662;28;19920;-72
2023/07/20 08:34:44;;;;;;;;;;;;;;;-140.72;18.45;52376.66;5088262;28;20069;-73
2023/07/20 08:37:12;;;;;;;;;;;;;;;-140.72;0.00;52338.09;5083662;28;19916;-72
2023/07/20 08:39:38;;;;;;;;;;;;;;;-140.72;0.00;52297.53;5098392;28;19916;-73
2023/07/20 08:42:04;;;;;;;;;;;;;;;-140.72;0.00;52327.97;5085334;28;19935;-73
2023/07/20 08:44:29;;;;;;;;;;;;;;;-140.72;0.00;52346.22;5080349;28;19925;-73
2023/07/20 08:46:55;;;;;;;;;;;;;;;-140.72;0.00;52392.88;5089852;28;19973;-73
2023/07/20 08:49:20;;;;;;;;;;;;;;;-140.72;0.00;52401.00;5088117;28;19920;-72
2023/07/20 08:51:46;;;;;;;;;;;;;;;-140.72;0.00;52390.84;5079607;28;19916;-73
2023/07/20 08:54:12;;;;;;;;;;;;;;;-140.72;0.00;52445.66;5068321;28;19924;-73
2023/07/20 08:56:38;;;;;;;;;;;;;;;-140.72;0.00;52447.69;5077283;28;20301;-73
2023/07/20 08:59:04;;;;;;;;;;;;;;;-140.72;0.00;52470.00;5089726;28;20012;-73
2023/07/20 09:01:30;;;;;;;;;;;;;;;-140.72;0.00;52451.72;5079947;28;19944;-73
2023/07/20 09:03:55;;;;;;;;;;;;;;;-140.72;0.00;52480.16;5085842;28;20002;-73
2023/07/20 09:06:20;;;;;;;;;;;;;;;-140.72;0.00;52488.25;5091733;28;19920;-74
2023/07/20 09:08:46;;;;;;;;;;;;;;;-140.72;1.42;52512.59;5084770;28;20036;-74
2023/07/20 09:11:11;;;;;;;;;;;;;;;-140.72;5.83;52459.84;5093820;28;20043;-74
2023/07/20 09:13:37;;;;;;;;;;;;;;;-140.72;6.62;52496.38;5103760;28;19916;-73
2023/07/20 09:16:04;;;;;;;;;;;;;;;-140.72;0.00;52459.84;5077020;28;19920;-72
2023/07/20 09:18:30;;;;;;;;;;;;;;;-140.72;0.00;52409.13;5097450;28;19934;-73
2023/07/20 09:21:03;;;;;;;;;;;;;;;-140.72;0.00;52403.03;5079290;28;19943;-73
2023/07/20 09:23:31;;;;;;;;;;;;;;;-140.72;0.00;52346.22;5076074;28;20211;-73
2023/07/20 09:25:57;;;;;;;;;;;;;;;-140.72;0.00;52325.94;5093071;28;20338;-73
2023/07/20 09:28:22;;;;;;;;;;;;;;;-140.72;0.00;52305.63;5084736;28;20316;-73
2023/07/20 09:30:49;;;;;;;;;;;;;;;-140.72;0.00;52277.22;5089554;28;21933;-73
2023/07/20 09:33:23;;;;;;;;;;;;;;;-140.72;0.00;52281.28;5093564;28;19924;-73
2023/07/20 09:35:49;;;;;;;;;;;;;;;-140.72;0.00;52220.41;5081437;28;20376;-73
2023/07/20 09:38:14;;;;;;;;;;;;;;;-140.72;0.00;52220.41;5091477;28;19956;-73
2023/07/20 09:40:40;;;;;;;;;;;;;;;-140.72;0.00;52271.16;5075179;28;19920;-73
2023/07/20 09:43:08;;;;;;;;;;;;;;;-140.72;0.00;52204.19;5057712;28;19916;-73
2023/07/20 09:45:35;;;;;;;;;;;;;;;-140.72;0.00;52273.19;5083786;28;20389;-74
2023/07/20 09:48:05;;;;;;;;;;;;;;;-140.72;0.00;52285.34;5079040;28;20009;-73
2023/07/20 09:50:30;;;;;;;;;;;;;;;-140.72;0.00;52330.00;5094172;28;20030;-73
2023/07/20 09:52:56;;;;;;;;;;;;;;;-140.72;0.00;52358.41;5105237;28;19920;-72
2023/07/20 09:55:24;;;;;;;;;;;;;;;-140.72;0.00;52403.03;5085431;28;19923;-73
2023/07/20 09:57:49;;;;;;;;;;;;;;;-140.72;0.00;52376.66;5086728;28;20033;-73
2023/07/20 10:00:16;;;;;;;;;;;;;;;-140.72;0.00;52384.78;5080259;28;19999;-72
2023/07/20 10:02:43;;;;;;;;;;;;;;;-140.72;0.00;52360.44;5092789;28;20376;-73
2023/07/20 10:05:10;;;;;;;;;;;;;;;-140.72;0.00;52405.06;5087887;28;19916;-73
2023/07/20 10:07:39;;;;;;;;;;;;;;;-140.72;0.00;52378.69;5069855;28;19970;-73
2023/07/20 10:10:07;;;;;;;;;;;;;;;-140.72;0.00;52403.03;5085037;28;19916;-73
2023/07/20 10:12:32;;;;;;;;;;;;;;;-140.72;0.00;52374.63;5090447;28;19916;-73
2023/07/20 10:15:08;;;;;;;;;;;;;;;-140.72;0.00;52382.75;5092012;28;19983;-73
2023/07/20 10:17:35;;;;;;;;;;;;;;;-140.72;0.00;52398.97;5088511;28;19970;-73
2023/07/20 10:20:00;;;;;;;;;;;;;;;-140.72;0.00;52384.78;5088390;28;20435;-73
2023/07/20 10:22:27;;;;;;;;;;;;;;;-140.72;0.00;52405.06;5082468;28;19920;-73
2023/07/20 10:24:54;;;;;;;;;;;;;;;-140.72;0.00;52378.69;5082892;28;19916;-73
2023/07/20 10:27:19;;;;;;;;;;;;;;;-140.72;0.00;52370.56;5087878;28;19920;-72
2023/07/20 10:29:46;;;;;;;;;;;;;;;-140.72;0.00;52248.81;5101490;28;19919;-74
2023/07/20 10:32:11;;;;;;;;;;;;;;;-140.72;0.00;52252.88;5065700;28;19924;-74
2023/07/20 10:34:37;;;;;;;;;;;;;;;-140.72;0.00;52269.13;5092507;28;19916;-74
2023/07/20 10:37:02;;;;;;;;;;;;;;;-140.72;0.00;52234.63;5091348;28;20366;-74
2023/07/20 10:39:30;;;;;;;;;;;;;;;-140.72;0.00;52228.53;5073662;28;19923;-73
2023/07/20 10:42:03;;;;;;;;;;;;;;;-140.72;0.00;52279.25;5091824;28;19916;-73
2023/07/20 10:44:28;;;;;;;;;;;;;;;-140.72;0.00;52350.28;5090442;28;20019;-73
2023/07/20 10:47:00;;;;;;;;;;;;;;;-140.72;0.00;52325.94;5081222;28;19969;-73
2023/07/20 10:49:26;;;;;;;;;;;;;;;-140.72;0.00;52350.28;5089266;28;19998;-74
2023/07/20 10:51:59;;;;;;;;;;;;;;;-140.72;0.00;52368.53;5072889;28;19916;-73
2023/07/20 10:54:24;;;;;;;;;;;;;;;-140.72;0.00;52350.28;5068066;28;20030;-73
2023/07/20 10:56:49;;;;;;;;;;;;;;;-140.72;0.00;52327.97;5103043;28;20435;-73
2023/07/20 10:59:24;;;;;;;;;;;;;;;-140.72;0.00;52360.44;5064769;28;19916;-72
2023/07/20 11:01:50;;;;;;;;;;;;;;;-140.72;0.00;52366.50;5083613;28;19920;-73
2023/07/20 11:04:16;;;;;;;;;;;;;;;-140.72;0.00;52325.94;5095633;28;19926;-72
2023/07/20 11:06:45;;;;;;;;;;;;;;;-140.72;0.00;52254.91;5070151;28;19985;-72
2023/07/20 11:09:14;;;;;;;;;;;;;;;-140.72;0.00;52265.06;5070451;28;20347;-72
2023/07/20 11:11:41;;;;;;;;;;;;;;;-140.72;0.00;52289.41;5085749;28;19920;-72
2023/07/20 11:14:26;;;;;;;;;;;;;;;-140.72;0.00;52289.41;5070792;28;20003;-72
2023/07/20 11:16:52;;;;;;;;;;;;;;;-140.72;0.00;52321.88;5077421;28;20321;-73
2023/07/20 11:19:24;;;;;;;;;;;;;;;-140.72;0.00;52378.69;5074268;28;19917;-73
2023/07/20 11:21:51;;;;;;;;;;;;;;;-140.72;0.00;52378.69;5096522;28;19920;-72
2023/07/20 11:24:16;;;;;;;;;;;;;;;-140.72;0.00;52396.94;5082695;28;19916;-74
2023/07/20 11:26:42;;;;;;;;;;;;;;;-140.72;0.00;52423.31;5087589;28;20484;-74
2023/07/20 11:29:07;;;;;;;;;;;;;;;-140.72;0.00;52417.25;5087819;28;20014;-73
2023/07/20 11:31:35;;;;;;;;;;;;;;;-140.72;0.00;52403.03;5072321;28;19916;-73
2023/07/20 11:34:00;;;;;;;;;;;;;;;-140.72;0.00;52390.84;5101380;28;20022;-72
2023/07/20 11:36:25;;;;;;;;;;;;;;;-140.72;0.00;52212.31;5082222;28;20342;-73
2023/07/20 11:38:51;;;;;;;;;;;;;;;-140.72;0.00;52204.19;5093565;28;20385;-73
2023/07/20 11:41:16;;;;;;;;;;;;;;;-140.72;0.00;52238.69;5078943;28;21390;-74
2023/07/20 11:43:42;;;;;;;;;;;;;;;-140.72;0.00;52082.44;5086568;28;19921;-73
2023/07/20 11:46:07;;;;;;;;;;;;;;;-140.72;0.00;52163.59;5088744;28;19924;-73
2023/07/20 11:48:32;;;;;;;;;;;;;;;-140.72;0.00;52090.56;5080502;28;19916;-73
2023/07/20 11:50:58;;;;;;;;;;;;;;;-140.72;0.00;51987.09;5091728;28;19916;-73
2023/07/20 11:53:24;;;;;;;;;;;;;;;-140.72;0.00;51912.03;5089679;28;19945;-73
2023/07/20 11:55:49;;;;;;;;;;;;;;;-140.72;0.00;51956.66;5092336;28;20266;-74
2023/07/20 11:58:16;;;;;;;;;;;;;;;-140.72;0.00;51976.94;5075724;28;19921;-73
2023/07/20 12:00:43;;;;;;;;;;;;;;;-140.72;0.00;51871.44;5102806;28;19928;-73
2023/07/20 12:03:10;;;;;;;;;;;;;;;-140.72;0.00;51891.72;5079034;28;19974;-73
2023/07/20 12:05:36;;;;;;;;;;;;;;;-140.72;0.00;51855.22;5087902;28;20286;-73
2023/07/20 12:08:01;;;;;;;;;;;;;;;-140.72;0.00;51838.97;5089731;28;19920;-73
2023/07/20 12:10:30;;;;;;;;;;;;;;;-140.72;0.00;51940.41;5087231;28;19962;-73
2023/07/20 12:13:01;;;;;;;;;;;;;;;-140.72;0.00;51905.94;5094106;28;19916;-74
2023/07/20 12:15:26;;;;;;;;;;;;;;;-140.72;0.00;51879.56;5101662;28;20318;-73
2023/07/20 12:17:53;;;;;;;;;;;;;;;-140.72;0.00;51956.66;5094611;28;19966;-72
2023/07/20 12:20:26;;;;;;;;;;;;;;;-140.72;0.00;51838.97;5067400;28;19923;-73
2023/07/20 12:22:52;;;;;;;;;;;;;;;-140.72;0.00;51784.19;5073274;28;19927;-73